Time;durP1;ratioP1;P1;durP2;ratioP2;P2;SDS_P1;SDS_P2;PMS_P1;PMS_P2;Temp;Humidity;BMP_temperature;BMP_pressure;BME280_temperature;BME280_humidity;BME280_pressure;Samples;Min_cycle;Max_cycle;Signal;HPM_P1;HPM_P2
2023/10/04 00:02:09;;;;;;;8.65;3.70;;;15.70;93.60;;;;;;5124042;28;20012;-86
2023/10/04 00:04:35;;;;;;;9.07;3.80;;;;;;;;;;5124101;28;20027;-85
2023/10/04 00:07:03;;;;;;;10.27;3.47;;;15.60;84.30;;;;;;5124164;28;20054;-83
2023/10/04 00:09:29;;;;;;;4.95;3.28;;;;;;;;;;5123753;28;20020;-86
2023/10/04 00:11:55;;;;;;;9.95;3.97;;;;;;;;;;5124023;28;20319;-84
2023/10/04 00:14:22;;;;;;;7.78;3.95;;;15.80;92.70;;;;;;5124050;28;20071;-83
2023/10/04 00:16:48;;;;;;;8.40;3.72;;;;;;;;;;5124254;28;20016;-85
2023/10/04 00:19:14;;;;;;;8.50;3.85;;;;;;;;;;5123952;28;20098;-88
2023/10/04 00:21:41;;;;;;;6.82;3.42;;;15.10;87.40;;;;;;5123894;28;20020;-85
2023/10/04 00:24:09;;;;;;;8.80;3.85;;;15.30;93.70;;;;;;5123759;28;20020;-86
2023/10/04 00:26:35;;;;;;;9.60;3.80;;;14.90;93.80;;;;;;5123699;28;20016;-84
2023/10/04 00:29:04;;;;;;;12.05;4.22;;;15.20;86.10;;;;;;5123783;28;20038;-84
2023/10/04 00:31:31;;;;;;;9.70;3.70;;;;;;;;;;5123539;28;20304;-86
2023/10/04 00:33:57;;;;;;;15.38;4.88;;;;;;;;;;5123453;28;20023;-86
2023/10/04 00:36:23;;;;;;;8.30;4.35;;;14.80;95.30;;;;;;5123331;28;20012;-85
2023/10/04 00:38:50;;;;;;;9.68;4.28;;;;;;;;;;5123236;28;20333;-85
2023/10/04 00:41:16;;;;;;;6.93;3.65;;;;;;;;;;5123062;28;20043;-83
2023/10/04 00:43:53;;;;;;;7.53;3.67;;;14.80;88.40;;;;;;5124705;28;20050;-86
2023/10/04 00:46:19;;;;;;;9.95;4.47;;;;;;;;;;5130699;27;20030;-84
2023/10/04 00:48:46;;;;;;;9.00;3.97;;;14.80;89.40;;;;;;5143171;27;20104;-85
2023/10/04 00:51:13;;;;;;;8.10;3.90;;;;;;;;;;5144287;27;20022;-84
2023/10/04 00:53:39;;;;;;;9.50;3.25;;;14.80;90.10;;;;;;5144400;27;20318;-84
2023/10/04 00:56:08;;;;;;;11.90;3.45;;;14.90;89.10;;;;;;5144539;27;20207;-85
2023/10/04 00:58:35;;;;;;;;;;;14.90;89.50;;;;;;5144722;27;20053;-85
2023/10/04 01:01:01;;;;;;;16.23;4.80;;;;;;;;;;5144353;27;19913;-86
2023/10/04 01:03:30;;;;;;;11.82;4.30;;;;;;;;;;5144545;27;20026;-84
2023/10/04 01:05:58;;;;;;;13.85;4.43;;;15.10;88.40;;;;;;5143497;27;20026;-84
2023/10/04 01:08:24;;;;;;;12.23;4.30;;;;;;;;;;5144292;27;20526;-85
2023/10/04 01:10:51;;;;;;;16.27;4.50;;;15.20;87.80;;;;;;5142623;27;20322;-84
2023/10/04 01:13:21;;;;;;;10.57;4.28;;;15.20;87.80;;;;;;5141767;27;20098;-82
2023/10/04 01:15:49;;;;;;;10.77;4.30;;;;;;;;;;5141451;27;20062;-82
2023/10/04 01:18:16;;;;;;;19.48;4.63;;;;;;;;;;5142014;27;20352;-84
2023/10/04 01:20:43;;;;;;;11.07;4.10;;;;;;;;;;5143582;27;20072;-85
2023/10/04 01:23:12;;;;;;;13.25;4.35;;;15.40;84.90;;;;;;5143348;27;20015;-85
2023/10/04 01:25:40;;;;;;;18.63;5.30;;;15.40;85.90;;;;;;5141152;27;20019;-80
2023/10/04 01:28:17;;;;;;;9.30;4.70;;;15.30;86.40;;;;;;5127283;27;20023;-80
2023/10/04 01:30:45;;;;;;;12.48;4.63;;;14.90;94.30;;;;;;5120573;28;20016;-79
2023/10/04 01:33:20;;;;;;;13.85;4.40;;;;;;;;;;5125704;28;20091;-87
2023/10/04 01:35:55;;;;;;;9.73;4.32;;;15.20;85.70;;;;;;5124047;28;20287;-85
2023/10/04 01:38:25;;;;;;;15.02;5.20;;;15.20;86.30;;;;;;5122665;28;20031;-84
2023/10/04 01:40:54;;;;;;;14.68;4.85;;;15.10;87.00;;;;;;5122639;28;20023;-85
2023/10/04 01:43:24;;;;;;;14.38;5.47;;;14.70;92.50;;;;;;5118179;28;20023;-87
2023/10/04 01:45:59;;;;;;;8.63;4.32;;;14.90;88.50;;;;;;5122537;28;20047;-88
2023/10/04 01:48:27;;;;;;;13.38;4.90;;;14.80;88.70;;;;;;5123767;28;20050;-85
2023/10/04 01:50:53;;;;;;;9.82;4.45;;;;;;;;;;5122639;28;20330;-86
2023/10/04 01:53:26;;;;;;;15.73;5.05;;;14.50;96.60;;;;;;5122795;28;20015;-84
2023/10/04 01:55:54;;;;;;;13.48;5.38;;;;;;;;;;5122592;28;20053;-84
2023/10/04 01:58:23;;;;;;;8.27;4.80;;;;;;;;;;5122530;28;20034;-84
2023/10/04 02:00:50;;;;;;;16.23;4.90;;;14.70;90.20;;;;;;5124617;28;20035;-84
2023/10/04 02:03:16;;;;;;;10.98;4.70;;;;;;;;;;5126554;28;20027;-85
2023/10/04 02:05:42;;;;;;;12.05;4.00;;;;;;;;;;5126309;28;20266;-84
2023/10/04 02:08:09;;;;;;;11.25;3.20;;;15.30;88.20;;;;;;5126369;28;20099;-84
2023/10/04 02:10:41;;;;;;;9.30;3.92;;;15.60;86.10;;;;;;5126503;28;20019;-84
2023/10/04 02:13:08;;;;;;;7.20;2.97;;;15.40;94.50;;;;;;5126235;28;20015;-86
2023/10/04 02:15:38;;;;;;;10.45;2.42;;;15.90;84.50;;;;;;5126238;28;20042;-87
2023/10/04 02:18:04;;;;;;;10.20;3.45;;;;;;;;;;5126303;28;20023;-83
2023/10/04 02:20:34;;;;;;;6.00;2.60;;;16.00;84.10;;;;;;5126423;28;20031;-85
2023/10/04 02:23:02;;;;;;;20.02;3.13;;;16.30;85.30;;;;;;5126139;28;20019;-87
2023/10/04 02:25:28;;;;;;;5.25;2.40;;;16.20;93.60;;;;;;5126364;28;20027;-85
2023/10/04 02:28:04;;;;;;;8.73;3.03;;;;;;;;;;5125107;28;20094;-79
2023/10/04 02:30:30;;;;;;;5.80;2.70;;;16.00;84.40;;;;;;5124101;28;20024;-79
2023/10/04 02:32:57;;;;;;;6.40;2.33;;;16.40;90.70;;;;;;5124142;28;20014;-86
2023/10/04 02:35:34;;;;;;;4.32;2.17;;;;;;;;;;5124919;28;20342;-84
2023/10/04 02:38:01;;;;;;;6.32;2.75;;;16.00;84.20;;;;;;5129393;27;20028;-81
2023/10/04 02:40:33;;;;;;;15.00;4.03;;;;;;;;;;5135342;27;20023;-80
2023/10/04 02:43:00;;;;;;;7.60;3.15;;;;;;;;;;5145924;27;20578;-86
2023/10/04 02:45:26;;;;;;;7.32;2.47;;;;;;;;;;5145877;27;20023;-85
2023/10/04 02:47:53;;;;;;;8.50;2.22;;;16.10;84.80;;;;;;5149958;27;20008;-86
2023/10/04 02:50:22;;;;;;;5.13;2.22;;;16.10;84.90;;;;;;5148998;27;20404;-85
2023/10/04 02:52:50;;;;;;;5.43;1.92;;;;;;;;;;5146473;27;20026;-85
2023/10/04 02:55:19;;;;;;;8.73;1.98;;;16.20;84.10;;;;;;5145887;27;20082;-81
2023/10/04 02:57:49;;;;;;;5.82;1.77;;;16.20;84.30;;;;;;5145833;27;20034;-89
2023/10/04 03:00:16;;;;;;;5.47;2.00;;;15.90;91.10;;;;;;5146370;27;20054;-86
2023/10/04 03:02:50;;;;;;;9.80;2.13;;;15.90;91.00;;;;;;5146879;27;20019;-85
2023/10/04 03:05:18;;;;;;;3.45;1.55;;;;;;;;;;5146812;27;20018;-85
2023/10/04 03:07:45;;;;;;;3.55;2.08;;;;;;;;;;5146898;27;20337;-85
2023/10/04 03:10:14;;;;;;;4.32;1.60;;;16.30;83.10;;;;;;5146900;27;20403;-86
2023/10/04 03:12:41;;;;;;;7.10;2.00;;;;;;;;;;5144716;27;20034;-85
2023/10/04 03:15:07;;;;;;;11.32;2.10;;;16.30;82.70;;;;;;5145786;27;20026;-84
2023/10/04 03:17:33;;;;;;;6.75;1.52;;;;;;;;;;5145605;27;20207;-84
2023/10/04 03:20:00;;;;;;;9.82;1.75;;;16.50;93.20;;;;;;5146154;27;20031;-85
2023/10/04 03:22:28;;;;;;;3.42;1.77;;;;;;;;;;5146065;27;20079;-86
2023/10/04 03:24:55;;;;;;;5.10;1.48;;;;;;;;;;5146264;27;20019;-86
2023/10/04 03:27:24;;;;;;;6.18;2.15;;;;;;;;;;5145292;27;20051;-85
2023/10/04 03:29:52;;;;;;;2.85;1.30;;;16.00;88.20;;;;;;5144913;27;20015;-87
2023/10/04 03:32:18;;;;;;;4.07;1.40;;;15.60;89.80;;;;;;5126439;27;20051;-83
2023/10/04 03:34:44;;;;;;;1.83;1.00;;;;;;;;;;5124139;28;20106;-84
2023/10/04 03:37:14;;;;;;;6.32;1.50;;;;;;;;;;5141290;27;20358;-85
2023/10/04 03:39:40;;;;;;;2.95;1.20;;;16.10;93.10;;;;;;5139943;27;20035;-85
2023/10/04 03:42:06;;;;;;;5.50;1.30;;;;;;;;;;5123929;28;20035;-84
2023/10/04 03:44:32;;;;;;;2.88;1.40;;;;;;;;;;5123902;28;20231;-84
2023/10/04 03:46:58;;;;;;;4.10;1.58;;;15.60;93.10;;;;;;5124004;28;20020;-86
2023/10/04 03:49:25;;;;;;;2.25;1.35;;;;;;;;;;5123686;28;20047;-83
2023/10/04 03:51:53;;;;;;;2.97;1.40;;;;;;;;;;5123908;28;20038;-84
2023/10/04 03:54:19;;;;;;;3.65;1.73;;;15.80;93.00;;;;;;5123836;28;20118;-85
2023/10/04 03:56:45;;;;;;;5.45;1.30;;;;;;;;;;5123741;28;20110;-84
2023/10/04 03:59:11;;;;;;;2.75;1.25;;;;;;;;;;5123268;28;20047;-85
2023/10/04 04:01:38;;;;;;;4.32;1.15;;;15.90;82.70;;;;;;5123559;28;20018;-83
2023/10/04 04:04:04;;;;;;;4.40;1.45;;;16.00;92.80;;;;;;5123437;28;20029;-86
2023/10/04 04:06:31;;;;;;;6.03;1.73;;;;;;;;;;5123355;28;20015;-84
2023/10/04 04:09:00;;;;;;;3.65;1.23;;;;;;;;;;5123142;28;20224;-84
2023/10/04 04:11:25;;;;;;;;;;;15.90;80.90;;;;;;5123619;28;20016;-85
2023/10/04 04:13:51;;;;;;;4.18;1.33;;;;;;;;;;5124330;28;19907;-86
2023/10/04 04:16:17;;;;;;;2.70;1.02;;;;;;;;;;5132378;27;20055;-84
2023/10/04 04:18:44;;;;;;;3.80;1.58;;;15.90;78.40;;;;;;5144974;27;20037;-85
2023/10/04 04:21:11;;;;;;;2.15;1.25;;;15.90;78.10;;;;;;5146670;27;20024;-86
2023/10/04 04:23:37;;;;;;;2.83;1.27;;;;;;;;;;5144618;27;20353;-86
2023/10/04 04:26:05;;;;;;;6.43;1.13;;;;;;;;;;5144423;27;20011;-85
2023/10/04 04:28:34;;;;;;;2.53;1.30;;;15.90;77.20;;;;;;5143580;27;20019;-80
2023/10/04 04:31:00;;;;;;;2.75;1.05;;;;;;;;;;5141144;27;20035;-80
2023/10/04 04:33:29;;;;;;;4.80;1.08;;;;;;;;;;5134682;27;20015;-83
2023/10/04 04:36:04;;;;;;;3.50;1.05;;;;;;;;;;5121572;28;20051;-85
2023/10/04 04:38:30;;;;;;;2.55;1.23;;;;;;;;;;5121964;28;20068;-83
2023/10/04 04:40:57;;;;;;;5.72;1.27;;;;;;;;;;5122813;28;20019;-81
2023/10/04 04:43:36;;;;;;;2.50;1.15;;;15.90;77.60;;;;;;5122358;28;20245;-85
2023/10/04 04:46:06;;;;;;;4.22;1.55;;;15.80;78.70;;;;;;5125359;27;20019;-84
2023/10/04 04:48:36;;;;;;;3.20;1.40;;;;;;;;;;5122472;28;20365;-84
2023/10/04 04:53:34;;;;;;;2.53;1.25;;;;;;;;;;5135166;27;20015;-86
2023/10/04 04:56:01;;;;;;;5.57;1.10;;;;;;;;;;5142742;27;20023;-88
2023/10/04 04:58:28;;;;;;;3.05;1.50;;;;;;;;;;5143681;27;20089;-86
2023/10/04 05:01:09;;;;;;;2.65;1.35;;;;;;;;;;5144362;27;20019;-88
2023/10/04 05:03:35;;;;;;;7.05;1.80;;;;;;;;;;5143655;27;20025;-84
2023/10/04 05:06:01;;;;;;;2.63;1.30;;;;;;;;;;5143869;27;20015;-84
2023/10/04 05:08:27;;;;;;;4.82;1.75;;;15.30;92.00;;;;;;5144062;27;20038;-84
2023/10/04 05:10:57;;;;;;;2.72;1.13;;;15.60;81.00;;;;;;5144857;27;20286;-85
2023/10/04 05:13:23;;;;;;;4.00;1.48;;;;;;;;;;5144381;27;20026;-84
2023/10/04 05:15:49;;;;;;;4.25;1.52;;;15.50;81.40;;;;;;5144541;27;20019;-86
2023/10/04 05:18:21;;;;;;;4.65;1.67;;;15.90;81.80;;;;;;5142757;27;20019;-85
2023/10/04 05:20:53;;;;;;;6.80;1.60;;;15.50;92.00;;;;;;5143238;27;20015;-84
2023/10/04 05:23:24;;;;;;;2.38;1.33;;;15.50;92.20;;;;;;5142795;27;20015;-85
2023/10/04 05:25:51;;;;;;;3.72;1.60;;;15.80;92.10;;;;;;5142749;27;20090;-84
2023/10/04 05:28:17;;;;;;;4.18;1.73;;;;;;;;;;5142420;27;20047;-83
2023/10/04 05:30:45;;;;;;;4.20;1.60;;;15.30;78.50;;;;;;5142207;27;20019;-83
2023/10/04 05:33:16;;;;;;;3.70;1.20;;;15.10;90.80;;;;;;5139381;27;20011;-85
2023/10/04 05:35:47;;;;;;;6.35;1.30;;;15.10;90.10;;;;;;5134474;27;20031;-84
2023/10/04 05:38:17;;;;;;;3.92;1.25;;;;;;;;;;5120946;28;20060;-79
2023/10/04 05:40:44;;;;;;;4.25;1.35;;;15.20;74.00;;;;;;5118973;28;20092;-79
2023/10/04 05:43:11;;;;;;;3.53;1.15;;;15.20;73.20;;;;;;5119881;28;20037;-84
2023/10/04 05:45:37;;;;;;;3.58;1.30;;;15.00;87.30;;;;;;5122228;28;20329;-85
2023/10/04 05:48:05;;;;;;;10.30;2.30;;;15.30;82.70;;;;;;5121330;28;20244;-84
2023/10/04 05:50:34;;;;;;;7.15;1.20;;;15.30;87.00;;;;;;5121968;28;20034;-80
2023/10/04 05:53:05;;;;;;;5.10;1.00;;;15.00;76.40;;;;;;5120221;28;20032;-84
2023/10/04 05:55:35;;;;;;;4.40;1.30;;;;;;;;;;5119185;28;20031;-79
2023/10/04 05:58:02;;;;;;;3.25;1.13;;;;;;;;;;5119246;28;20027;-82
2023/10/04 06:00:30;;;;;;;6.50;1.15;;;15.00;85.30;;;;;;5119544;28;20027;-82
2023/10/04 06:02:59;;;;;;;3.63;1.48;;;14.90;70.20;;;;;;5119753;28;20020;-80
2023/10/04 06:05:29;;;;;;;7.63;1.48;;;14.60;72.40;;;;;;5119717;28;20023;-81
2023/10/04 06:07:55;;;;;;;4.28;1.10;;;15.10;72.10;;;;;;5137148;28;20044;-80
2023/10/04 06:10:24;;;;;;;9.63;1.50;;;14.90;69.50;;;;;;5121411;28;20070;-79
2023/10/04 06:12:54;;;;;;;2.83;1.45;;;15.20;72.30;;;;;;5123211;28;20031;-80
2023/10/04 06:15:20;;;;;;;3.65;1.60;;;15.00;69.40;;;;;;5140718;28;20038;-84
2023/10/04 06:17:47;;;;;;;5.00;1.13;;;15.00;69.20;;;;;;5140777;28;20020;-84
2023/10/04 06:20:33;;;;;;;2.60;1.25;;;14.90;71.50;;;;;;5140806;28;20083;-79
2023/10/04 06:23:10;;;;;;;9.70;1.20;;;14.60;82.80;;;;;;5140717;28;20015;-80
2023/10/04 06:25:47;;;;;;;2.78;1.55;;;15.00;68.70;;;;;;5140744;28;20023;-83
2023/10/04 06:28:14;;;;;;;5.85;1.17;;;15.00;68.50;;;;;;5141064;28;20311;-86
2023/10/04 06:30:42;;;;;;;2.83;1.02;;;15.10;68.80;;;;;;5140690;28;20049;-79
2023/10/04 06:33:09;;;;;;;5.57;1.60;;;15.10;68.60;;;;;;5141254;28;20015;-83
2023/10/04 06:35:37;;;;;;;1.53;0.83;;;15.00;78.20;;;;;;5140754;28;20047;-80
2023/10/04 06:38:10;;;;;;;6.67;1.87;;;15.40;77.90;;;;;;5141222;28;20025;-79
2023/10/04 06:40:36;;;;;;;2.42;1.10;;;14.70;81.80;;;;;;5142633;27;20031;-85
2023/10/04 06:43:04;;;;;;;4.18;1.10;;;15.40;82.10;;;;;;5141037;28;20011;-81
2023/10/04 06:45:31;;;;;;;2.75;1.40;;;15.40;67.70;;;;;;5141990;27;20052;-79
2023/10/04 06:47:58;;;;;;;4.05;1.23;;;15.90;81.50;;;;;;5144091;27;20023;-80
2023/10/04 06:50:32;;;;;;;1.55;1.00;;;15.40;81.90;;;;;;5144442;27;20040;-84
2023/10/04 06:52:59;;;;;;;10.23;1.63;;;15.30;82.30;;;;;;5146098;27;20027;-85
2023/10/04 06:55:26;;;;;;;4.30;1.23;;;15.10;68.70;;;;;;5144649;27;20017;-82
2023/10/04 06:57:53;;;;;;;8.90;1.60;;;15.00;68.90;;;;;;5146197;27;20015;-79
2023/10/04 07:00:20;;;;;;;3.63;1.17;;;15.00;68.90;;;;;;5146960;27;20027;-85
2023/10/04 07:02:53;;;;;;;6.97;1.23;;;14.90;69.20;;;;;;5145254;27;20046;-87
2023/10/04 07:05:30;;;;;;;4.93;1.38;;;14.90;83.30;;;;;;5145919;27;20026;-86
2023/10/04 07:07:58;;;;;;;3.45;1.20;;;14.90;69.70;;;;;;5146591;27;20031;-84
2023/10/04 07:10:26;;;;;;;5.20;1.30;;;15.00;70.00;;;;;;5144839;27;20014;-85
2023/10/04 07:12:52;;;;;;;2.08;1.33;;;15.50;83.40;;;;;;5144757;27;20026;-86
2023/10/04 07:15:19;;;;;;;3.53;1.20;;;14.70;83.30;;;;;;5144888;27;20106;-85
2023/10/04 07:17:45;;;;;;;2.45;1.23;;;;;;;;;;5144452;27;20051;-85
2023/10/04 07:20:15;;;;;;;4.82;1.52;;;15.80;67.50;;;;;;5144167;27;20085;-81
2023/10/04 07:23:03;;;;;;;5.68;1.17;;;16.20;66.40;;;;;;5144884;27;20332;-81
2023/10/04 07:25:32;;;;;;;4.15;0.88;;;16.90;79.50;;;;;;5143145;27;20016;-78
2023/10/04 07:28:02;;;;;;;2.00;1.13;;;16.60;66.30;;;;;;5144254;27;20027;-79
2023/10/04 07:30:29;;;;;;;2.72;0.90;;;16.20;78.10;;;;;;5144342;27;20069;-80
2023/10/04 07:32:57;;;;;;;2.30;1.27;;;16.40;64.70;;;;;;5144110;27;20023;-81
2023/10/04 07:35:25;;;;;;;2.53;0.80;;;;;;;;;;5142887;27;20238;-79
2023/10/04 07:37:55;;;;;;;4.05;1.15;;;15.60;75.40;;;;;;5144001;27;20018;-81
2023/10/04 07:40:23;;;;;;;2.45;1.02;;;16.00;66.70;;;;;;5144107;27;20031;-79
2023/10/04 07:42:54;;;;;;;3.33;1.75;;;16.00;67.50;;;;;;5142781;27;20249;-82
2023/10/04 07:45:28;;;;;;;7.03;1.27;;;16.30;81.10;;;;;;5143362;27;20019;-81
2023/10/04 07:47:54;;;;;;;1.17;1.00;;;;;;;;;;5142782;27;20019;-81
2023/10/04 07:50:25;;;;;;;3.17;1.33;;;;;;;;;;5143197;27;20050;-84
2023/10/04 07:52:53;;;;;;;3.95;1.92;;;15.70;67.60;;;;;;5140310;27;20022;-84
2023/10/04 07:55:22;;;;;;;5.55;1.20;;;16.00;75.10;;;;;;5130376;27;20015;-80
2023/10/04 07:57:53;;;;;;;3.42;1.27;;;15.40;82.20;;;;;;5143220;27;20099;-86
2023/10/04 08:00:20;;;;;;;4.57;1.63;;;16.00;68.70;;;;;;5143421;27;20035;-78
2023/10/04 08:02:50;;;;;;;6.13;1.15;;;16.70;80.90;;;;;;5143531;27;20011;-81
2023/10/04 08:05:18;;;;;;;5.47;1.65;;;16.60;79.80;;;;;;5142128;27;20030;-79
2023/10/04 08:07:48;;;;;;;2.08;1.00;;;17.00;79.40;;;;;;5143586;27;20011;-86
2023/10/04 08:10:15;;;;;;;5.90;1.15;;;17.10;80.20;;;;;;5143608;27;20023;-80
2023/10/04 08:12:42;;;;;;;3.72;1.00;;;17.20;64.80;;;;;;5143472;27;20082;-77
2023/10/04 08:15:15;;;;;;;2.35;1.10;;;17.50;69.60;;;;;;5142965;27;20053;-85
2023/10/04 08:17:44;;;;;;;1.33;1.05;;;;;;;;;;5142302;27;20052;-79
2023/10/04 08:20:14;;;;;;;5.45;0.98;;;17.40;62.40;;;;;;5142760;27;20034;-83
2023/10/04 08:22:41;;;;;;;7.40;1.50;;;16.80;69.80;;;;;;5143701;27;20011;-78
2023/10/04 08:25:09;;;;;;;4.18;1.23;;;17.10;77.00;;;;;;5140910;27;20019;-79
2023/10/04 08:27:35;;;;;;;1.88;1.10;;;;;;;;;;5143030;27;20107;-80
2023/10/04 08:30:08;;;;;;;5.63;1.00;;;18.10;65.50;;;;;;5143087;27;20082;-80
2023/10/04 08:32:34;;;;;;;8.77;1.10;;;18.60;74.20;;;;;;5142999;27;20026;-80
2023/10/04 08:35:00;;;;;;;4.65;1.15;;;;;;;;;;5143464;27;20034;-80
2023/10/04 08:37:27;;;;;;;3.22;1.35;;;;;;;;;;5141397;27;20011;-80
2023/10/04 08:39:53;;;;;;;6.25;1.48;;;;;;;;;;5142545;27;20039;-81
2023/10/04 08:42:19;;;;;;;7.60;0.80;;;;;;;;;;5141718;27;20030;-80
2023/10/04 08:44:48;;;;;;;4.40;1.25;;;18.10;61.10;;;;;;5133856;27;20023;-85
2023/10/04 08:47:15;;;;;;;7.53;1.40;;;18.20;74.00;;;;;;5138495;27;20016;-83
2023/10/04 08:49:53;;;;;;;4.03;1.08;;;18.50;72.00;;;;;;5123479;27;20338;-79
2023/10/04 08:52:35;;;;;;;3.20;1.30;;;18.30;62.10;;;;;;5133915;27;20027;-83
2023/10/04 08:55:07;;;;;;;6.93;1.02;;;18.40;60.60;;;;;;5141820;27;20035;-84
2023/10/04 08:57:40;;;;;;;6.80;1.23;;;18.40;59.60;;;;;;5144513;27;20027;-86
2023/10/04 09:00:13;;;;;;;2.83;1.23;;;18.70;61.10;;;;;;5142686;27;20033;-80
2023/10/04 09:02:46;;;;;;;6.35;1.40;;;18.60;72.20;;;;;;5141515;27;20019;-80
2023/10/04 09:05:17;;;;;;;4.40;0.95;;;18.70;70.90;;;;;;5141598;27;20211;-80
2023/10/04 09:07:43;;;;;;;1.88;0.85;;;19.20;69.30;;;;;;5143518;27;20086;-87
2023/10/04 09:10:17;;;;;;;3.50;1.50;;;20.10;68.10;;;;;;5142395;27;20023;-82
2023/10/04 09:12:44;;;;;;;2.35;1.30;;;;;;;;;;5141473;27;20026;-79
2023/10/04 09:15:13;;;;;;;4.38;1.88;;;20.80;65.50;;;;;;5140998;27;20023;-78
2023/10/04 09:17:46;;;;;;;3.60;1.60;;;22.40;55.90;;;;;;5140739;27;20230;-79
2023/10/04 09:20:15;;;;;;;3.05;1.60;;;22.40;60.50;;;;;;5140704;27;20314;-80
2023/10/04 09:22:42;;;;;;;;;;;22.40;52.20;;;;;;5141227;27;20136;-78
2023/10/04 09:25:09;;;;;;;2.03;1.33;;;21.50;56.90;;;;;;5140671;27;19933;-78
2023/10/04 09:27:36;;;;;;;3.20;1.42;;;;;;;;;;5140573;27;20027;-78
2023/10/04 09:30:21;;;;;;;2.40;1.67;;;22.20;60.70;;;;;;5141106;27;20011;-86
2023/10/04 09:32:47;;;;;;;6.28;1.50;;;;;;;;;;5141684;27;20307;-87
2023/10/04 09:35:12;;;;;;;13.63;1.92;;;21.00;62.40;;;;;;5141282;27;20057;-85
2023/10/04 09:37:44;;;;;;;4.75;1.58;;;;;;;;;;5141418;27;20023;-87
2023/10/04 09:40:15;;;;;;;7.55;1.08;;;20.70;57.90;;;;;;5141286;27;20039;-84
2023/10/04 09:43:00;;;;;;;3.70;1.83;;;20.20;62.70;;;;;;5141241;28;20016;-87
2023/10/04 09:45:31;;;;;;;3.35;1.60;;;;;;;;;;5141460;28;20023;-86
2023/10/04 09:48:03;;;;;;;4.47;1.58;;;20.50;64.30;;;;;;5141813;28;20015;-85
2023/10/04 09:50:29;;;;;;;1.50;1.35;;;;;;;;;;5141847;28;20075;-86
2023/10/04 09:52:55;;;;;;;4.10;1.85;;;;;;;;;;5141493;28;20083;-85
2023/10/04 09:55:22;;;;;;;2.17;1.08;;;20.30;53.80;;;;;;5141400;28;20019;-87
2023/10/04 09:57:49;;;;;;;4.90;1.25;;;19.90;62.60;;;;;;5142642;28;20011;-87
2023/10/04 10:00:17;;;;;;;2.13;1.00;;;20.00;54.20;;;;;;5141887;28;20035;-82
2023/10/04 10:02:48;;;;;;;2.47;1.33;;;19.40;64.40;;;;;;5141241;28;20034;-86
2023/10/04 10:05:21;;;;;;;9.73;1.95;;;19.80;54.60;;;;;;5142761;28;20030;-86
2023/10/04 10:07:48;;;;;;;3.65;1.67;;;20.10;59.00;;;;;;5142458;28;20098;-87
2023/10/04 10:10:16;;;;;;;4.97;1.40;;;21.50;51.10;;;;;;5142177;27;20015;-85
2023/10/04 10:12:43;;;;;;;7.15;6.40;;;21.60;59.80;;;;;;5142453;27;20019;-87
2023/10/04 10:15:11;;;;;;;8.15;1.67;;;20.30;53.70;;;;;;5142694;27;20026;-84
2023/10/04 10:17:38;;;;;;;2.33;1.40;;;20.60;50.20;;;;;;5143908;27;20075;-85
2023/10/04 10:20:09;;;;;;;4.80;1.73;;;20.50;51.30;;;;;;5142232;27;20106;-87
2023/10/04 10:22:35;;;;;;;8.38;2.00;;;;;;;;;;5129974;27;20034;-87
2023/10/04 10:25:03;;;;;;;2.20;1.40;;;20.10;60.70;;;;;;5127261;28;20022;-85
2023/10/04 10:27:30;;;;;;;3.70;1.65;;;;;;;;;;5126731;28;20022;-86
2023/10/04 10:30:03;;;;;;;3.03;1.15;;;19.90;51.40;;;;;;5126831;28;20023;-84
2023/10/04 10:32:29;;;;;;;2.88;1.52;;;19.90;62.50;;;;;;5128555;28;20007;-83
2023/10/04 10:35:00;;;;;;;7.47;1.20;;;19.80;52.10;;;;;;5125864;28;20041;-84
2023/10/04 10:37:26;;;;;;;4.32;1.63;;;;;;;;;;5126689;28;20310;-85
2023/10/04 10:39:55;;;;;;;4.82;1.45;;;20.80;52.40;;;;;;5126673;28;20031;-86
2023/10/04 10:42:22;;;;;;;5.63;2.38;;;;;;;;;;5127423;28;20125;-84
2023/10/04 10:44:50;;;;;;;4.65;1.42;;;20.20;51.70;;;;;;5126671;28;20026;-85
2023/10/04 10:47:25;;;;;;;5.15;1.92;;;20.20;51.30;;;;;;5127738;28;20031;-86
2023/10/04 10:50:01;;;;;;;4.85;1.42;;;20.30;52.80;;;;;;5126552;28;20054;-87
2023/10/04 10:52:34;;;;;;;4.95;1.80;;;22.40;56.90;;;;;;5125817;28;20024;-86
2023/10/04 10:55:05;;;;;;;4.38;2.47;;;24.20;53.20;;;;;;5125597;28;20323;-89
2023/10/04 10:57:32;;;;;;;4.40;1.35;;;22.00;53.90;;;;;;5126135;28;20015;-88
2023/10/04 11:00:07;;;;;;;3.05;1.40;;;21.40;57.90;;;;;;5124769;28;20047;-88
2023/10/04 11:02:33;;;;;;;4.03;1.40;;;21.20;57.40;;;;;;5124870;28;20042;-86
2023/10/04 11:04:59;;;;;;;5.18;1.58;;;20.40;58.10;;;;;;5125931;28;20247;-87
2023/10/04 11:07:26;;;;;;;4.57;1.38;;;20.50;51.30;;;;;;5126218;28;20370;-87
2023/10/04 11:09:56;;;;;;;7.25;1.27;;;20.50;49.50;;;;;;5124476;28;20072;-86
2023/10/04 11:12:23;;;;;;;3.65;1.05;;;20.40;49.30;;;;;;5124684;28;20030;-86
2023/10/04 11:14:49;;;;;;;4.22;1.58;;;20.30;48.20;;;;;;5125222;28;20023;-86
2023/10/04 11:17:16;;;;;;;5.65;1.33;;;20.60;49.40;;;;;;5137811;27;20025;-83
2023/10/04 11:19:42;;;;;;;2.47;1.55;;;;;;;;;;5143331;27;20350;-82
2023/10/04 11:22:08;;;;;;;2.00;1.13;;;20.60;58.10;;;;;;5143624;27;20011;-81
2023/10/04 11:24:39;;;;;;;4.78;1.48;;;20.10;57.10;;;;;;5143378;27;20015;-79
2023/10/04 11:27:06;;;;;;;2.45;1.50;;;21.00;48.90;;;;;;5143440;27;20042;-80
2023/10/04 11:29:33;;;;;;;5.70;1.33;;;20.80;48.00;;;;;;5144884;27;20031;-86
2023/10/04 11:31:59;;;;;;;2.53;1.33;;;21.00;58.30;;;;;;5143967;27;20180;-85
2023/10/04 11:34:26;;;;;;;3.20;2.00;;;;;;;;;;5144837;27;20090;-83
2023/10/04 11:36:59;;;;;;;6.90;1.08;;;20.40;48.40;;;;;;5143700;27;20083;-85
2023/10/04 11:39:33;;;;;;;2.67;1.50;;;20.40;48.70;;;;;;5142905;27;20046;-87
2023/10/04 11:42:03;;;;;;;7.28;1.13;;;20.20;60.20;;;;;;5144490;27;20019;-86
2023/10/04 11:44:33;;;;;;;2.17;1.23;;;20.00;49.60;;;;;;5144423;27;20022;-83
2023/10/04 11:47:03;;;;;;;5.35;1.50;;;20.00;60.10;;;;;;5144059;27;20207;-85
2023/10/04 11:49:32;;;;;;;4.72;1.17;;;20.00;58.80;;;;;;5143836;27;20042;-85
2023/10/04 11:52:01;;;;;;;8.82;1.13;;;;;;;;;;5144576;27;20047;-85
2023/10/04 11:54:44;;;;;;;3.13;1.40;;;19.60;50.10;;;;;;5144741;27;20019;-87
2023/10/04 11:57:12;;;;;;;3.92;1.20;;;;;;;;;;5144030;27;20019;-83
2023/10/04 11:59:39;;;;;;;2.97;1.30;;;19.60;50.10;;;;;;5145233;27;20358;-86
2023/10/04 12:02:06;;;;;;;4.72;1.27;;;19.30;49.80;;;;;;5145273;27;20023;-85
2023/10/04 12:04:34;;;;;;;5.50;1.15;;;19.30;50.50;;;;;;5144427;27;20019;-82
2023/10/04 12:07:07;;;;;;;4.35;1.20;;;19.60;61.50;;;;;;5146013;27;20279;-85
2023/10/04 12:09:36;;;;;;;3.50;0.88;;;;;;;;;;5144566;27;20027;-84
2023/10/04 12:12:04;;;;;;;6.18;1.05;;;19.10;50.00;;;;;;5144678;27;20015;-82
2023/10/04 12:14:34;;;;;;;2.53;1.23;;;19.20;50.10;;;;;;5145195;27;20015;-85
2023/10/04 12:17:03;;;;;;;2.25;1.00;;;;;;;;;;5143865;27;20038;-82
2023/10/04 12:19:34;;;;;;;3.67;1.48;;;19.30;50.90;;;;;;5143678;27;20039;-88
2023/10/04 12:22:02;;;;;;;7.30;1.20;;;19.60;51.20;;;;;;5143601;27;20094;-82
2023/10/04 12:24:32;;;;;;;5.80;1.40;;;;;;;;;;5144799;27;20023;-86
2023/10/04 12:27:00;;;;;;;3.50;1.50;;;;;;;;;;5144384;27;21000;-84
2023/10/04 12:29:29;;;;;;;4.63;1.70;;;;;;;;;;5142576;27;20019;-86
2023/10/04 12:31:57;;;;;;;5.65;1.40;;;19.50;50.70;;;;;;5143006;27;20027;-86
2023/10/04 12:34:24;;;;;;;5.30;1.20;;;19.40;62.50;;;;;;5143574;27;20015;-86
2023/10/04 12:36:51;;;;;;;2.05;1.10;;;18.80;63.10;;;;;;5142996;27;20042;-85
2023/10/04 12:39:17;;;;;;;3.38;1.40;;;18.40;63.80;;;;;;5144420;27;20030;-86
2023/10/04 12:41:46;;;;;;;2.28;1.15;;;;;;;;;;5145106;27;20023;-86
2023/10/04 12:44:13;;;;;;;2.38;1.20;;;;;;;;;;5144302;27;20019;-86
2023/10/04 12:46:39;;;;;;;8.05;1.40;;;;;;;;;;5145530;27;20094;-85
2023/10/04 12:49:07;;;;;;;2.88;1.10;;;17.80;54.00;;;;;;5144238;27;20043;-86
2023/10/04 12:51:34;;;;;;;1.92;1.20;;;17.80;64.20;;;;;;5143177;27;20021;-80
2023/10/04 12:54:00;;;;;;;4.70;1.10;;;18.60;63.90;;;;;;5142260;27;20031;-84
2023/10/04 12:56:26;;;;;;;3.20;1.23;;;;;;;;;;5143247;27;20026;-86
2023/10/04 12:58:52;;;;;;;4.97;1.20;;;18.30;63.60;;;;;;5143676;27;20103;-85
2023/10/04 13:01:18;;;;;;;9.98;1.33;;;18.00;65.10;;;;;;5143715;27;20025;-86
2023/10/04 13:03:45;;;;;;;3.97;1.17;;;18.20;65.40;;;;;;5143479;27;20043;-87
2023/10/04 13:06:14;;;;;;;6.10;1.10;;;;;;;;;;5142804;27;20018;-84
2023/10/04 13:08:43;;;;;;;2.03;1.35;;;17.90;54.50;;;;;;5144232;27;20031;-87
2023/10/04 13:11:14;;;;;;;4.78;1.35;;;18.00;55.70;;;;;;5143345;27;20023;-84
2023/10/04 13:13:43;;;;;;;14.63;3.63;;;17.80;55.40;;;;;;5144448;27;20068;-84
2023/10/04 13:16:10;;;;;;;6.90;1.10;;;;;;;;;;5144052;27;20038;-82
2023/10/04 13:18:37;;;;;;;3.03;1.10;;;17.60;57.10;;;;;;5143570;27;20018;-85
2023/10/04 13:21:03;;;;;;;4.88;1.48;;;17.10;68.00;;;;;;5143461;27;20019;-85
2023/10/04 13:23:32;;;;;;;2.25;1.10;;;;;;;;;;5144339;27;20023;-86
2023/10/04 13:25:58;;;;;;;6.60;1.15;;;;;;;;;;5142204;27;20033;-82
2023/10/04 13:28:27;;;;;;;8.15;1.50;;;15.90;55.50;;;;;;5141499;27;20019;-80
2023/10/04 13:30:57;;;;;;;2.65;1.00;;;17.00;68.80;;;;;;5141513;27;20026;-80